sensor_id;sensor_type;location;lat;lon;timestamp;P1;durP1;ratioP1;P2;durP2;ratioP2
3959;SDS011;1994;48.640;8.894;2022-09-30T00:00:25;10.97;;;5.40;;
3959;SDS011;1994;48.640;8.894;2022-09-30T00:02:51;8.33;;;5.00;;
3959;SDS011;1994;48.640;8.894;2022-09-30T00:05:17;8.23;;;4.70;;
3959;SDS011;1994;48.640;8.894;2022-09-30T00:07:42;5.93;;;4.10;;
3959;SDS011;1994;48.640;8.894;2022-09-30T00:10:08;13.70;;;6.30;;
3959;SDS011;1994;48.640;8.894;2022-09-30T00:12:34;10.63;;;5.93;;
3959;SDS011;1994;48.640;8.894;2022-09-30T00:14:59;7.17;;;5.00;;
3959;SDS011;1994;48.640;8.894;2022-09-30T00:17:26;12.87;;;5.20;;
3959;SDS011;1994;48.640;8.894;2022-09-30T00:19:52;5.67;;;4.83;;
3959;SDS011;1994;48.640;8.894;2022-09-30T00:22:18;11.50;;;6.43;;
3959;SDS011;1994;48.640;8.894;2022-09-30T00:24:43;10.63;;;6.50;;
3959;SDS011;1994;48.640;8.894;2022-09-30T00:27:10;11.70;;;5.87;;
3959;SDS011;1994;48.640;8.894;2022-09-30T00:29:36;5.67;;;3.80;;
3959;SDS011;1994;48.640;8.894;2022-09-30T00:32:02;8.30;;;4.93;;
3959;SDS011;1994;48.640;8.894;2022-09-30T00:34:28;6.83;;;4.53;;
3959;SDS011;1994;48.640;8.894;2022-09-30T00:36:53;9.03;;;4.63;;
3959;SDS011;1994;48.640;8.894;2022-09-30T00:39:26;6.17;;;4.33;;
3959;SDS011;1994;48.640;8.894;2022-09-30T00:41:57;11.40;;;5.23;;
3959;SDS011;1994;48.640;8.894;2022-09-30T00:53:09;6.10;;;4.93;;
3959;SDS011;1994;48.640;8.894;2022-09-30T00:58:48;5.33;;;4.00;;
3959;SDS011;1994;48.640;8.894;2022-09-30T01:01:23;7.70;;;5.00;;
3959;SDS011;1994;48.640;8.894;2022-09-30T01:03:57;4.60;;;3.77;;
3959;SDS011;1994;48.640;8.894;2022-09-30T01:06:27;8.83;;;5.07;;
3959;SDS011;1994;48.640;8.894;2022-09-30T01:08:53;13.60;;;8.30;;
3959;SDS011;1994;48.640;8.894;2022-09-30T01:11:19;11.90;;;7.60;;
3959;SDS011;1994;48.640;8.894;2022-09-30T01:13:46;7.97;;;5.50;;
3959;SDS011;1994;48.640;8.894;2022-09-30T01:19:53;8.13;;;4.43;;
3959;SDS011;1994;48.640;8.894;2022-09-30T01:22:43;8.50;;;6.33;;
3959;SDS011;1994;48.640;8.894;2022-09-30T01:31:06;8.80;;;4.87;;
3959;SDS011;1994;48.640;8.894;2022-09-30T01:34:01;8.90;;;5.47;;
3959;SDS011;1994;48.640;8.894;2022-09-30T01:37:07;8.83;;;4.70;;
3959;SDS011;1994;48.640;8.894;2022-09-30T01:40:11;6.47;;;4.60;;
3959;SDS011;1994;48.640;8.894;2022-09-30T01:42:59;10.50;;;5.30;;
3959;SDS011;1994;48.640;8.894;2022-09-30T01:50:55;12.03;;;4.70;;
3959;SDS011;1994;48.640;8.894;2022-09-30T01:53:42;6.70;;;4.73;;
3959;SDS011;1994;48.640;8.894;2022-09-30T01:56:42;11.67;;;5.80;;
3959;SDS011;1994;48.640;8.894;2022-09-30T01:59:20;8.90;;;5.00;;
3959;SDS011;1994;48.640;8.894;2022-09-30T02:01:57;9.20;;;5.40;;
3959;SDS011;1994;48.640;8.894;2022-09-30T02:04:30;9.80;;;5.40;;
3959;SDS011;1994;48.640;8.894;2022-09-30T02:07:06;9.10;;;6.17;;
3959;SDS011;1994;48.640;8.894;2022-09-30T02:09:40;11.33;;;5.70;;
3959;SDS011;1994;48.640;8.894;2022-09-30T02:12:18;10.27;;;5.70;;
3959;SDS011;1994;48.640;8.894;2022-09-30T02:14:49;11.20;;;5.80;;
3959;SDS011;1994;48.640;8.894;2022-09-30T02:17:33;10.13;;;6.33;;
3959;SDS011;1994;48.640;8.894;2022-09-30T02:20:09;7.83;;;4.83;;
3959;SDS011;1994;48.640;8.894;2022-09-30T02:22:51;10.97;;;5.33;;
3959;SDS011;1994;48.640;8.894;2022-09-30T02:25:27;10.90;;;5.63;;
3959;SDS011;1994;48.640;8.894;2022-09-30T02:28:06;8.03;;;5.70;;
3959;SDS011;1994;48.640;8.894;2022-09-30T02:30:38;6.60;;;4.70;;
3959;SDS011;1994;48.640;8.894;2022-09-30T02:33:10;14.87;;;5.27;;
3959;SDS011;1994;48.640;8.894;2022-09-30T02:35:51;5.80;;;4.60;;
3959;SDS011;1994;48.640;8.894;2022-09-30T02:38:24;6.83;;;4.90;;
3959;SDS011;1994;48.640;8.894;2022-09-30T02:41:00;12.90;;;5.70;;
3959;SDS011;1994;48.640;8.894;2022-09-30T02:43:32;10.53;;;5.10;;
3959;SDS011;1994;48.640;8.894;2022-09-30T02:46:07;6.73;;;4.50;;
3959;SDS011;1994;48.640;8.894;2022-09-30T02:51:55;6.50;;;5.30;;
3959;SDS011;1994;48.640;8.894;2022-09-30T02:54:51;8.07;;;4.90;;
3959;SDS011;1994;48.640;8.894;2022-09-30T02:57:43;13.97;;;7.07;;
3959;SDS011;1994;48.640;8.894;2022-09-30T03:00:18;9.20;;;5.80;;
3959;SDS011;1994;48.640;8.894;2022-09-30T03:02:43;9.30;;;6.60;;
3959;SDS011;1994;48.640;8.894;2022-09-30T03:05:09;7.90;;;6.23;;
3959;SDS011;1994;48.640;8.894;2022-09-30T03:07:36;9.50;;;5.60;;
3959;SDS011;1994;48.640;8.894;2022-09-30T03:10:11;6.57;;;5.23;;
3959;SDS011;1994;48.640;8.894;2022-09-30T03:18:33;9.17;;;6.17;;
3959;SDS011;1994;48.640;8.894;2022-09-30T03:21:25;15.47;;;6.07;;
3959;SDS011;1994;48.640;8.894;2022-09-30T03:27:20;8.90;;;5.10;;
3959;SDS011;1994;48.640;8.894;2022-09-30T03:35:31;6.40;;;4.67;;
3959;SDS011;1994;48.640;8.894;2022-09-30T03:38:39;11.33;;;4.60;;
3959;SDS011;1994;48.640;8.894;2022-09-30T03:41:51;8.97;;;5.30;;
3959;SDS011;1994;48.640;8.894;2022-09-30T03:44:38;11.80;;;4.83;;
3959;SDS011;1994;48.640;8.894;2022-09-30T03:47:30;6.30;;;5.17;;
3959;SDS011;1994;48.640;8.894;2022-09-30T03:50:05;10.10;;;5.03;;
3959;SDS011;1994;48.640;8.894;2022-09-30T03:52:33;8.03;;;5.50;;
3959;SDS011;1994;48.640;8.894;2022-09-30T03:55:01;8.37;;;4.63;;
3959;SDS011;1994;48.640;8.894;2022-09-30T03:57:29;6.30;;;4.70;;
3959;SDS011;1994;48.640;8.894;2022-09-30T03:59:56;11.23;;;4.93;;
3959;SDS011;1994;48.640;8.894;2022-09-30T04:02:23;5.03;;;4.23;;
3959;SDS011;1994;48.640;8.894;2022-09-30T04:04:49;7.57;;;4.37;;
3959;SDS011;1994;48.640;8.894;2022-09-30T04:07:15;6.30;;;4.00;;
3959;SDS011;1994;48.640;8.894;2022-09-30T04:09:41;4.60;;;3.80;;
3959;SDS011;1994;48.640;8.894;2022-09-30T04:12:07;6.33;;;4.10;;
3959;SDS011;1994;48.640;8.894;2022-09-30T04:14:33;5.70;;;4.33;;
3959;SDS011;1994;48.640;8.894;2022-09-30T04:16:59;5.33;;;4.10;;
3959;SDS011;1994;48.640;8.894;2022-09-30T04:19:27;7.50;;;4.63;;
3959;SDS011;1994;48.640;8.894;2022-09-30T04:21:53;6.97;;;4.73;;
3959;SDS011;1994;48.640;8.894;2022-09-30T04:24:20;7.03;;;4.50;;
3959;SDS011;1994;48.640;8.894;2022-09-30T04:26:47;12.50;;;4.77;;
3959;SDS011;1994;48.640;8.894;2022-09-30T04:29:14;15.30;;;4.77;;
3959;SDS011;1994;48.640;8.894;2022-09-30T04:31:40;10.90;;;4.43;;
3959;SDS011;1994;48.640;8.894;2022-09-30T04:34:06;4.90;;;4.40;;
3959;SDS011;1994;48.640;8.894;2022-09-30T04:36:35;5.10;;;4.60;;
3959;SDS011;1994;48.640;8.894;2022-09-30T04:39:01;6.07;;;4.37;;
3959;SDS011;1994;48.640;8.894;2022-09-30T04:41:27;7.57;;;4.63;;
3959;SDS011;1994;48.640;8.894;2022-09-30T04:43:53;7.03;;;4.20;;
3959;SDS011;1994;48.640;8.894;2022-09-30T04:46:19;5.63;;;4.00;;
3959;SDS011;1994;48.640;8.894;2022-09-30T04:48:47;9.40;;;4.13;;
3959;SDS011;1994;48.640;8.894;2022-09-30T04:51:14;10.60;;;4.97;;
3959;SDS011;1994;48.640;8.894;2022-09-30T04:53:43;8.47;;;4.00;;
3959;SDS011;1994;48.640;8.894;2022-09-30T04:56:11;7.33;;;4.20;;
3959;SDS011;1994;48.640;8.894;2022-09-30T04:58:38;7.20;;;4.53;;
3959;SDS011;1994;48.640;8.894;2022-09-30T05:01:05;7.37;;;4.73;;
3959;SDS011;1994;48.640;8.894;2022-09-30T05:03:36;17.00;;;7.70;;
3959;SDS011;1994;48.640;8.894;2022-09-30T05:06:03;13.80;;;7.47;;
3959;SDS011;1994;48.640;8.894;2022-09-30T05:08:30;12.93;;;7.20;;
3959;SDS011;1994;48.640;8.894;2022-09-30T05:10:58;11.40;;;5.73;;
3959;SDS011;1994;48.640;8.894;2022-09-30T05:13:33;8.60;;;6.00;;
3959;SDS011;1994;48.640;8.894;2022-09-30T05:16:04;10.50;;;6.50;;
3959;SDS011;1994;48.640;8.894;2022-09-30T05:18:31;13.30;;;6.07;;
3959;SDS011;1994;48.640;8.894;2022-09-30T05:20:58;8.27;;;6.03;;
3959;SDS011;1994;48.640;8.894;2022-09-30T05:23:25;9.13;;;4.90;;
3959;SDS011;1994;48.640;8.894;2022-09-30T05:25:54;12.17;;;7.27;;
3959;SDS011;1994;48.640;8.894;2022-09-30T05:28:20;10.50;;;5.50;;
3959;SDS011;1994;48.640;8.894;2022-09-30T05:30:46;9.50;;;5.40;;
3959;SDS011;1994;48.640;8.894;2022-09-30T05:33:13;6.93;;;4.53;;
3959;SDS011;1994;48.640;8.894;2022-09-30T05:35:40;7.40;;;4.40;;
3959;SDS011;1994;48.640;8.894;2022-09-30T05:38:07;9.40;;;4.10;;
3959;SDS011;1994;48.640;8.894;2022-09-30T05:40:37;6.93;;;4.97;;
3959;SDS011;1994;48.640;8.894;2022-09-30T05:43:04;8.60;;;5.20;;
3959;SDS011;1994;48.640;8.894;2022-09-30T05:45:31;7.03;;;4.17;;
3959;SDS011;1994;48.640;8.894;2022-09-30T05:47:58;9.53;;;4.73;;
3959;SDS011;1994;48.640;8.894;2022-09-30T05:50:24;9.23;;;5.70;;
3959;SDS011;1994;48.640;8.894;2022-09-30T05:52:51;7.67;;;5.23;;
3959;SDS011;1994;48.640;8.894;2022-09-30T05:55:17;11.07;;;6.63;;
3959;SDS011;1994;48.640;8.894;2022-09-30T05:57:48;13.67;;;7.10;;
3959;SDS011;1994;48.640;8.894;2022-09-30T06:00:15;12.60;;;6.43;;
3959;SDS011;1994;48.640;8.894;2022-09-30T06:02:42;9.03;;;6.20;;
3959;SDS011;1994;48.640;8.894;2022-09-30T06:05:08;16.13;;;6.53;;
3959;SDS011;1994;48.640;8.894;2022-09-30T06:07:37;9.20;;;6.70;;
3959;SDS011;1994;48.640;8.894;2022-09-30T06:10:04;11.70;;;7.10;;
3959;SDS011;1994;48.640;8.894;2022-09-30T06:12:35;13.93;;;6.90;;
3959;SDS011;1994;48.640;8.894;2022-09-30T06:15:02;13.83;;;6.93;;
3959;SDS011;1994;48.640;8.894;2022-09-30T06:17:28;7.80;;;5.93;;
3959;SDS011;1994;48.640;8.894;2022-09-30T06:19:54;19.70;;;8.13;;
3959;SDS011;1994;48.640;8.894;2022-09-30T06:22:20;12.17;;;7.20;;
3959;SDS011;1994;48.640;8.894;2022-09-30T06:24:46;11.47;;;7.63;;
3959;SDS011;1994;48.640;8.894;2022-09-30T06:27:12;16.87;;;7.80;;
3959;SDS011;1994;48.640;8.894;2022-09-30T06:29:38;12.53;;;7.13;;
3959;SDS011;1994;48.640;8.894;2022-09-30T06:32:04;9.17;;;6.57;;
3959;SDS011;1994;48.640;8.894;2022-09-30T06:34:30;16.37;;;7.07;;
3959;SDS011;1994;48.640;8.894;2022-09-30T06:36:56;14.90;;;7.00;;
3959;SDS011;1994;48.640;8.894;2022-09-30T06:39:22;15.60;;;7.03;;
3959;SDS011;1994;48.640;8.894;2022-09-30T06:41:48;13.63;;;6.53;;
3959;SDS011;1994;48.640;8.894;2022-09-30T06:44:14;12.63;;;7.67;;
3959;SDS011;1994;48.640;8.894;2022-09-30T06:46:39;14.00;;;8.53;;
3959;SDS011;1994;48.640;8.894;2022-09-30T06:49:05;11.13;;;7.60;;
3959;SDS011;1994;48.640;8.894;2022-09-30T06:51:31;9.13;;;6.67;;
3959;SDS011;1994;48.640;8.894;2022-09-30T06:53:58;36.37;;;9.80;;
3959;SDS011;1994;48.640;8.894;2022-09-30T06:56:24;12.67;;;7.20;;
3959;SDS011;1994;48.640;8.894;2022-09-30T06:58:51;26.33;;;14.10;;
3959;SDS011;1994;48.640;8.894;2022-09-30T07:01:17;20.30;;;10.37;;
3959;SDS011;1994;48.640;8.894;2022-09-30T07:03:45;13.10;;;8.83;;
3959;SDS011;1994;48.640;8.894;2022-09-30T07:06:11;13.33;;;7.53;;
3959;SDS011;1994;48.640;8.894;2022-09-30T07:08:38;8.93;;;6.93;;
3959;SDS011;1994;48.640;8.894;2022-09-30T07:11:09;10.83;;;8.00;;
3959;SDS011;1994;48.640;8.894;2022-09-30T07:13:45;17.87;;;9.13;;
3959;SDS011;1994;48.640;8.894;2022-09-30T07:16:13;11.60;;;8.53;;
3959;SDS011;1994;48.640;8.894;2022-09-30T07:18:40;11.70;;;7.70;;
3959;SDS011;1994;48.640;8.894;2022-09-30T07:21:07;25.57;;;10.10;;
3959;SDS011;1994;48.640;8.894;2022-09-30T07:23:33;15.00;;;9.33;;
3959;SDS011;1994;48.640;8.894;2022-09-30T07:26:00;18.83;;;9.50;;
3959;SDS011;1994;48.640;8.894;2022-09-30T07:28:30;19.47;;;8.87;;
3959;SDS011;1994;48.640;8.894;2022-09-30T07:31:01;21.83;;;11.97;;
3959;SDS011;1994;48.640;8.894;2022-09-30T07:33:32;26.40;;;12.67;;
3959;SDS011;1994;48.640;8.894;2022-09-30T07:35:59;25.30;;;13.10;;
3959;SDS011;1994;48.640;8.894;2022-09-30T07:38:32;39.20;;;14.87;;
3959;SDS011;1994;48.640;8.894;2022-09-30T07:41:07;34.97;;;15.77;;
3959;SDS011;1994;48.640;8.894;2022-09-30T07:43:39;27.00;;;12.13;;
3959;SDS011;1994;48.640;8.894;2022-09-30T07:46:22;17.60;;;8.80;;
3959;SDS011;1994;48.640;8.894;2022-09-30T07:48:52;15.80;;;8.00;;
3959;SDS011;1994;48.640;8.894;2022-09-30T07:51:25;10.60;;;7.57;;
3959;SDS011;1994;48.640;8.894;2022-09-30T07:53:59;14.50;;;9.10;;
3959;SDS011;1994;48.640;8.894;2022-09-30T07:56:29;15.90;;;8.37;;
3959;SDS011;1994;48.640;8.894;2022-09-30T07:58:56;11.30;;;7.47;;
3959;SDS011;1994;48.640;8.894;2022-09-30T08:01:25;13.13;;;8.23;;
3959;SDS011;1994;48.640;8.894;2022-09-30T08:03:56;15.60;;;8.10;;
3959;SDS011;1994;48.640;8.894;2022-09-30T08:06:25;14.10;;;8.43;;
3959;SDS011;1994;48.640;8.894;2022-09-30T08:08:54;12.20;;;6.70;;
3959;SDS011;1994;48.640;8.894;2022-09-30T08:11:21;18.50;;;8.70;;
3959;SDS011;1994;48.640;8.894;2022-09-30T08:13:52;9.70;;;7.57;;
3959;SDS011;1994;48.640;8.894;2022-09-30T08:16:21;14.67;;;9.07;;
3959;SDS011;1994;48.640;8.894;2022-09-30T08:18:48;12.40;;;8.57;;
3959;SDS011;1994;48.640;8.894;2022-09-30T08:21:19;13.40;;;8.40;;
3959;SDS011;1994;48.640;8.894;2022-09-30T08:23:45;14.70;;;9.73;;
3959;SDS011;1994;48.640;8.894;2022-09-30T08:26:11;12.20;;;8.17;;
3959;SDS011;1994;48.640;8.894;2022-09-30T08:28:37;22.90;;;9.33;;
3959;SDS011;1994;48.640;8.894;2022-09-30T08:31:04;14.50;;;7.70;;
3959;SDS011;1994;48.640;8.894;2022-09-30T08:33:34;11.73;;;8.83;;
3959;SDS011;1994;48.640;8.894;2022-09-30T08:36:07;20.60;;;10.20;;
3959;SDS011;1994;48.640;8.894;2022-09-30T08:38:35;15.10;;;9.77;;
3959;SDS011;1994;48.640;8.894;2022-09-30T08:41:22;19.63;;;10.10;;
3959;SDS011;1994;48.640;8.894;2022-09-30T08:50:46;18.00;;;9.40;;
3959;SDS011;1994;48.640;8.894;2022-09-30T08:53:33;17.63;;;11.43;;
3959;SDS011;1994;48.640;8.894;2022-09-30T08:56:04;13.77;;;9.67;;
3959;SDS011;1994;48.640;8.894;2022-09-30T09:01:01;13.67;;;8.40;;
3959;SDS011;1994;48.640;8.894;2022-09-30T09:03:43;13.17;;;8.67;;
3959;SDS011;1994;48.640;8.894;2022-09-30T09:06:26;12.30;;;9.27;;
3959;SDS011;1994;48.640;8.894;2022-09-30T09:22:38;11.70;;;7.67;;
3959;SDS011;1994;48.640;8.894;2022-09-30T09:25:05;10.27;;;7.73;;
3959;SDS011;1994;48.640;8.894;2022-09-30T09:27:44;12.83;;;7.77;;
3959;SDS011;1994;48.640;8.894;2022-09-30T09:30:20;16.53;;;8.67;;
3959;SDS011;1994;48.640;8.894;2022-09-30T09:32:53;9.10;;;7.20;;
3959;SDS011;1994;48.640;8.894;2022-09-30T09:38:18;10.80;;;7.30;;
3959;SDS011;1994;48.640;8.894;2022-09-30T09:46:24;11.70;;;6.50;;
3959;SDS011;1994;48.640;8.894;2022-09-30T09:54:38;8.53;;;6.30;;
3959;SDS011;1994;48.640;8.894;2022-09-30T09:57:15;9.00;;;6.47;;
3959;SDS011;1994;48.640;8.894;2022-09-30T10:00:03;9.60;;;6.43;;
3959;SDS011;1994;48.640;8.894;2022-09-30T10:03:03;9.53;;;6.90;;
3959;SDS011;1994;48.640;8.894;2022-09-30T10:05:37;6.50;;;5.77;;
3959;SDS011;1994;48.640;8.894;2022-09-30T10:08:11;8.57;;;5.67;;
3959;SDS011;1994;48.640;8.894;2022-09-30T10:10:51;6.43;;;5.80;;
3959;SDS011;1994;48.640;8.894;2022-09-30T10:13:39;10.83;;;7.90;;
3959;SDS011;1994;48.640;8.894;2022-09-30T10:16:18;6.13;;;3.80;;
3959;SDS011;1994;48.640;8.894;2022-09-30T10:19:00;7.00;;;4.03;;
3959;SDS011;1994;48.640;8.894;2022-09-30T10:21:29;7.30;;;4.30;;
3959;SDS011;1994;48.640;8.894;2022-09-30T10:23:55;4.70;;;4.20;;
3959;SDS011;1994;48.640;8.894;2022-09-30T10:26:27;4.90;;;4.37;;
3959;SDS011;1994;48.640;8.894;2022-09-30T10:29:00;4.90;;;3.67;;
3959;SDS011;1994;48.640;8.894;2022-09-30T10:36:36;3.43;;;3.13;;
3959;SDS011;1994;48.640;8.894;2022-09-30T10:39:05;3.97;;;3.07;;
3959;SDS011;1994;48.640;8.894;2022-09-30T10:44:41;4.93;;;3.37;;
3959;SDS011;1994;48.640;8.894;2022-09-30T10:47:32;3.67;;;2.93;;
3959;SDS011;1994;48.640;8.894;2022-09-30T10:52:39;4.43;;;3.40;;
3959;SDS011;1994;48.640;8.894;2022-09-30T10:57:46;6.00;;;3.00;;
3959;SDS011;1994;48.640;8.894;2022-09-30T11:00:17;3.67;;;2.70;;
3959;SDS011;1994;48.640;8.894;2022-09-30T11:02:54;8.57;;;3.10;;
3959;SDS011;1994;48.640;8.894;2022-09-30T11:08:21;5.10;;;4.00;;
3959;SDS011;1994;48.640;8.894;2022-09-30T11:13:47;5.30;;;4.60;;
3959;SDS011;1994;48.640;8.894;2022-09-30T11:19:48;5.00;;;3.57;;
3959;SDS011;1994;48.640;8.894;2022-09-30T11:25:11;5.47;;;4.70;;
3959;SDS011;1994;48.640;8.894;2022-09-30T11:27:57;5.60;;;4.10;;
3959;SDS011;1994;48.640;8.894;2022-09-30T11:44:39;6.40;;;4.30;;
3959;SDS011;1994;48.640;8.894;2022-09-30T11:55:32;5.53;;;3.47;;
3959;SDS011;1994;48.640;8.894;2022-09-30T11:58:22;4.10;;;3.70;;
3959;SDS011;1994;48.640;8.894;2022-09-30T12:00:57;6.40;;;3.70;;
3959;SDS011;1994;48.640;8.894;2022-09-30T12:03:37;6.80;;;4.07;;
3959;SDS011;1994;48.640;8.894;2022-09-30T12:06:15;5.77;;;3.53;;
3959;SDS011;1994;48.640;8.894;2022-09-30T12:08:55;3.90;;;3.10;;
3959;SDS011;1994;48.640;8.894;2022-09-30T12:14:10;5.23;;;3.13;;
3959;SDS011;1994;48.640;8.894;2022-09-30T12:17:05;6.17;;;4.57;;
3959;SDS011;1994;48.640;8.894;2022-09-30T12:19:44;4.07;;;2.80;;
3959;SDS011;1994;48.640;8.894;2022-09-30T12:22:16;3.03;;;2.60;;
3959;SDS011;1994;48.640;8.894;2022-09-30T12:24:48;8.80;;;2.80;;
3959;SDS011;1994;48.640;8.894;2022-09-30T12:27:22;7.63;;;3.23;;
3959;SDS011;1994;48.640;8.894;2022-09-30T12:29:59;3.17;;;2.90;;
3959;SDS011;1994;48.640;8.894;2022-09-30T12:39:20;2.80;;;2.60;;
3959;SDS011;1994;48.640;8.894;2022-09-30T12:42:04;5.07;;;2.53;;
3959;SDS011;1994;48.640;8.894;2022-09-30T12:44:56;5.33;;;2.90;;
3959;SDS011;1994;48.640;8.894;2022-09-30T12:47:55;6.30;;;2.87;;
3959;SDS011;1994;48.640;8.894;2022-09-30T12:50:44;3.40;;;3.10;;
3959;SDS011;1994;48.640;8.894;2022-09-30T12:53:35;2.83;;;2.30;;
3959;SDS011;1994;48.640;8.894;2022-09-30T12:58:40;4.80;;;2.60;;
3959;SDS011;1994;48.640;8.894;2022-09-30T13:01:14;6.03;;;2.80;;
3959;SDS011;1994;48.640;8.894;2022-09-30T13:06:21;3.00;;;2.53;;
3959;SDS011;1994;48.640;8.894;2022-09-30T13:11:38;2.50;;;2.27;;
3959;SDS011;1994;48.640;8.894;2022-09-30T13:19:36;6.03;;;3.00;;
3959;SDS011;1994;48.640;8.894;2022-09-30T13:32:40;19.53;;;7.43;;
3959;SDS011;1994;48.640;8.894;2022-09-30T13:46:31;2.80;;;2.60;;
3959;SDS011;1994;48.640;8.894;2022-09-30T13:51:43;2.77;;;2.57;;
3959;SDS011;1994;48.640;8.894;2022-09-30T13:54:19;3.50;;;2.70;;
3959;SDS011;1994;48.640;8.894;2022-09-30T13:57:00;2.90;;;2.70;;
3959;SDS011;1994;48.640;8.894;2022-09-30T13:59:31;11.03;;;2.40;;
3959;SDS011;1994;48.640;8.894;2022-09-30T14:13:37;4.77;;;2.80;;
3959;SDS011;1994;48.640;8.894;2022-09-30T14:19:43;8.97;;;3.00;;
3959;SDS011;1994;48.640;8.894;2022-09-30T14:22:38;5.70;;;2.50;;
3959;SDS011;1994;48.640;8.894;2022-09-30T14:25:16;6.23;;;3.00;;
3959;SDS011;1994;48.640;8.894;2022-09-30T14:30:27;5.33;;;3.63;;
3959;SDS011;1994;48.640;8.894;2022-09-30T14:35:34;2.97;;;2.73;;
3959;SDS011;1994;48.640;8.894;2022-09-30T14:38:02;3.10;;;2.80;;
3959;SDS011;1994;48.640;8.894;2022-09-30T14:40:52;2.83;;;2.53;;
3959;SDS011;1994;48.640;8.894;2022-09-30T14:43:23;3.73;;;2.90;;
3959;SDS011;1994;48.640;8.894;2022-09-30T14:46:00;2.80;;;2.57;;
3959;SDS011;1994;48.640;8.894;2022-09-30T14:48:40;3.40;;;2.43;;
3959;SDS011;1994;48.640;8.894;2022-09-30T14:51:11;4.80;;;3.63;;
3959;SDS011;1994;48.640;8.894;2022-09-30T14:54:01;6.53;;;5.93;;
3959;SDS011;1994;48.640;8.894;2022-09-30T14:56:30;7.53;;;3.70;;
3959;SDS011;1994;48.640;8.894;2022-09-30T14:58:59;4.60;;;3.00;;
3959;SDS011;1994;48.640;8.894;2022-09-30T15:01:36;2.67;;;2.47;;
3959;SDS011;1994;48.640;8.894;2022-09-30T15:04:09;3.10;;;2.80;;
3959;SDS011;1994;48.640;8.894;2022-09-30T15:06:42;6.40;;;4.50;;
3959;SDS011;1994;48.640;8.894;2022-09-30T15:09:14;12.73;;;7.33;;
3959;SDS011;1994;48.640;8.894;2022-09-30T15:12:04;15.43;;;4.47;;
3959;SDS011;1994;48.640;8.894;2022-09-30T15:14:44;24.10;;;13.03;;
3959;SDS011;1994;48.640;8.894;2022-09-30T15:17:26;9.23;;;4.83;;
3959;SDS011;1994;48.640;8.894;2022-09-30T15:19:53;4.87;;;3.40;;
3959;SDS011;1994;48.640;8.894;2022-09-30T15:22:20;5.60;;;2.83;;
3959;SDS011;1994;48.640;8.894;2022-09-30T15:24:50;3.40;;;2.80;;
3959;SDS011;1994;48.640;8.894;2022-09-30T15:27:28;4.50;;;2.90;;
3959;SDS011;1994;48.640;8.894;2022-09-30T15:29:58;6.70;;;2.50;;
3959;SDS011;1994;48.640;8.894;2022-09-30T15:32:27;5.10;;;2.37;;
3959;SDS011;1994;48.640;8.894;2022-09-30T15:35:04;2.90;;;2.40;;
3959;SDS011;1994;48.640;8.894;2022-09-30T15:37:39;2.90;;;2.53;;
3959;SDS011;1994;48.640;8.894;2022-09-30T15:40:15;2.93;;;2.60;;
3959;SDS011;1994;48.640;8.894;2022-09-30T15:43:07;4.33;;;2.73;;
3959;SDS011;1994;48.640;8.894;2022-09-30T15:45:36;3.37;;;2.73;;
3959;SDS011;1994;48.640;8.894;2022-09-30T15:50:51;4.27;;;2.80;;
3959;SDS011;1994;48.640;8.894;2022-09-30T15:56:16;4.23;;;3.47;;
3959;SDS011;1994;48.640;8.894;2022-09-30T15:58:56;4.53;;;2.73;;
3959;SDS011;1994;48.640;8.894;2022-09-30T16:01:38;9.37;;;3.93;;
3959;SDS011;1994;48.640;8.894;2022-09-30T16:06:51;6.30;;;3.90;;
3959;SDS011;1994;48.640;8.894;2022-09-30T16:09:26;7.87;;;4.63;;
3959;SDS011;1994;48.640;8.894;2022-09-30T16:14:39;10.50;;;3.70;;
3959;SDS011;1994;48.640;8.894;2022-09-30T16:20:06;5.30;;;3.57;;
3959;SDS011;1994;48.640;8.894;2022-09-30T16:22:48;8.37;;;3.63;;
3959;SDS011;1994;48.640;8.894;2022-09-30T16:28:09;7.07;;;4.40;;
3959;SDS011;1994;48.640;8.894;2022-09-30T16:30:55;7.70;;;3.60;;
3959;SDS011;1994;48.640;8.894;2022-09-30T16:33:21;8.80;;;4.93;;
3959;SDS011;1994;48.640;8.894;2022-09-30T16:35:47;9.67;;;5.07;;
3959;SDS011;1994;48.640;8.894;2022-09-30T16:38:14;11.17;;;5.70;;
3959;SDS011;1994;48.640;8.894;2022-09-30T16:40:41;17.27;;;8.53;;
3959;SDS011;1994;48.640;8.894;2022-09-30T16:43:07;13.47;;;9.27;;
3959;SDS011;1994;48.640;8.894;2022-09-30T16:45:35;29.83;;;11.97;;
3959;SDS011;1994;48.640;8.894;2022-09-30T16:48:04;36.20;;;18.60;;
3959;SDS011;1994;48.640;8.894;2022-09-30T16:53:30;55.00;;;23.63;;
3959;SDS011;1994;48.640;8.894;2022-09-30T16:55:56;42.87;;;20.27;;
3959;SDS011;1994;48.640;8.894;2022-09-30T16:58:22;40.23;;;19.73;;
3959;SDS011;1994;48.640;8.894;2022-09-30T17:00:48;35.77;;;20.40;;
3959;SDS011;1994;48.640;8.894;2022-09-30T17:03:14;20.70;;;12.60;;
3959;SDS011;1994;48.640;8.894;2022-09-30T17:05:42;28.97;;;13.13;;
3959;SDS011;1994;48.640;8.894;2022-09-30T17:08:13;48.17;;;23.00;;
3959;SDS011;1994;48.640;8.894;2022-09-30T17:10:41;23.13;;;12.07;;
3959;SDS011;1994;48.640;8.894;2022-09-30T17:13:10;16.20;;;7.40;;
3959;SDS011;1994;48.640;8.894;2022-09-30T17:15:39;10.80;;;7.77;;
3959;SDS011;1994;48.640;8.894;2022-09-30T17:18:06;10.63;;;7.33;;
3959;SDS011;1994;48.640;8.894;2022-09-30T17:20:34;14.50;;;8.33;;
3959;SDS011;1994;48.640;8.894;2022-09-30T17:23:02;8.50;;;6.47;;
3959;SDS011;1994;48.640;8.894;2022-09-30T17:25:28;8.73;;;6.30;;
3959;SDS011;1994;48.640;8.894;2022-09-30T17:27:54;18.20;;;8.10;;
3959;SDS011;1994;48.640;8.894;2022-09-30T17:30:21;29.33;;;8.23;;
3959;SDS011;1994;48.640;8.894;2022-09-30T17:32:47;10.90;;;7.50;;
3959;SDS011;1994;48.640;8.894;2022-09-30T17:35:13;14.70;;;8.27;;
3959;SDS011;1994;48.640;8.894;2022-09-30T17:37:39;12.43;;;8.23;;
3959;SDS011;1994;48.640;8.894;2022-09-30T17:40:06;9.53;;;6.70;;
3959;SDS011;1994;48.640;8.894;2022-09-30T17:42:51;18.00;;;12.60;;
3959;SDS011;1994;48.640;8.894;2022-09-30T17:45:40;15.70;;;11.20;;
3959;SDS011;1994;48.640;8.894;2022-09-30T17:48:08;25.20;;;14.57;;
3959;SDS011;1994;48.640;8.894;2022-09-30T17:50:36;15.37;;;8.33;;
3959;SDS011;1994;48.640;8.894;2022-09-30T17:53:04;8.37;;;6.37;;
3959;SDS011;1994;48.640;8.894;2022-09-30T17:55:31;16.93;;;6.30;;
3959;SDS011;1994;48.640;8.894;2022-09-30T17:58:00;10.93;;;7.73;;
3959;SDS011;1994;48.640;8.894;2022-09-30T18:00:29;20.80;;;10.77;;
3959;SDS011;1994;48.640;8.894;2022-09-30T18:02:55;23.73;;;11.93;;
3959;SDS011;1994;48.640;8.894;2022-09-30T18:05:21;19.30;;;11.93;;
3959;SDS011;1994;48.640;8.894;2022-09-30T18:07:49;15.40;;;8.70;;
3959;SDS011;1994;48.640;8.894;2022-09-30T18:10:15;11.40;;;8.33;;
3959;SDS011;1994;48.640;8.894;2022-09-30T18:12:41;15.20;;;8.60;;
3959;SDS011;1994;48.640;8.894;2022-09-30T18:15:07;19.70;;;10.80;;
3959;SDS011;1994;48.640;8.894;2022-09-30T18:17:34;12.90;;;8.20;;
3959;SDS011;1994;48.640;8.894;2022-09-30T18:20:00;34.03;;;21.13;;
3959;SDS011;1994;48.640;8.894;2022-09-30T18:22:26;26.13;;;16.23;;
3959;SDS011;1994;48.640;8.894;2022-09-30T18:24:51;25.10;;;13.97;;
3959;SDS011;1994;48.640;8.894;2022-09-30T18:27:36;8.50;;;6.70;;
3959;SDS011;1994;48.640;8.894;2022-09-30T18:30:02;9.70;;;7.40;;
3959;SDS011;1994;48.640;8.894;2022-09-30T18:32:29;19.47;;;11.97;;
3959;SDS011;1994;48.640;8.894;2022-09-30T18:34:56;32.50;;;12.90;;
3959;SDS011;1994;48.640;8.894;2022-09-30T18:37:22;20.80;;;10.87;;
3959;SDS011;1994;48.640;8.894;2022-09-30T18:39:49;18.30;;;10.53;;
3959;SDS011;1994;48.640;8.894;2022-09-30T18:42:15;11.07;;;8.33;;
3959;SDS011;1994;48.640;8.894;2022-09-30T18:44:47;13.60;;;8.67;;
3959;SDS011;1994;48.640;8.894;2022-09-30T18:47:15;13.77;;;8.33;;
3959;SDS011;1994;48.640;8.894;2022-09-30T18:49:44;14.57;;;9.27;;
3959;SDS011;1994;48.640;8.894;2022-09-30T18:52:10;17.50;;;8.20;;
3959;SDS011;1994;48.640;8.894;2022-09-30T18:54:36;15.47;;;10.93;;
3959;SDS011;1994;48.640;8.894;2022-09-30T18:57:02;19.40;;;10.73;;
3959;SDS011;1994;48.640;8.894;2022-09-30T18:59:28;16.03;;;8.37;;
3959;SDS011;1994;48.640;8.894;2022-09-30T19:01:54;13.57;;;8.00;;
3959;SDS011;1994;48.640;8.894;2022-09-30T19:04:22;16.63;;;8.07;;
3959;SDS011;1994;48.640;8.894;2022-09-30T19:06:48;11.80;;;7.20;;
3959;SDS011;1994;48.640;8.894;2022-09-30T19:09:14;13.17;;;7.27;;
3959;SDS011;1994;48.640;8.894;2022-09-30T19:11:40;13.00;;;7.50;;
3959;SDS011;1994;48.640;8.894;2022-09-30T19:14:13;13.57;;;8.20;;